sensor_id;sensor_type;location;lat;lon;timestamp;pressure;altitude;pressure_sealevel;temperature;humidity
31092;BME280;17747;51.070;10.930;2022-08-04T00:00:06;100708.44;;;18.00;57.38
31092;BME280;17747;51.070;10.930;2022-08-04T00:01:11;100708.63;;;18.12;57.29
31092;BME280;17747;51.070;10.930;2022-08-04T00:02:23;100706.38;;;18.05;57.23
31092;BME280;17747;51.070;10.930;2022-08-04T00:03:27;100707.19;;;18.07;57.12
31092;BME280;17747;51.070;10.930;2022-08-04T00:04:39;100708.13;;;18.37;56.59
31092;BME280;17747;51.070;10.930;2022-08-04T00:05:53;100713.72;;;18.64;55.58
31092;BME280;17747;51.070;10.930;2022-08-04T00:07:04;100710.78;;;18.06;57.20
31092;BME280;17747;51.070;10.930;2022-08-04T00:08:16;100711.25;;;18.45;56.26
31092;BME280;17747;51.070;10.930;2022-08-04T00:09:29;100715.72;;;18.61;55.80
31092;BME280;17747;51.070;10.930;2022-08-04T00:10:31;100710.97;;;18.50;56.21
31092;BME280;17747;51.070;10.930;2022-08-04T00:11:36;100714.34;;;18.22;56.61
31092;BME280;17747;51.070;10.930;2022-08-04T00:12:43;100712.28;;;18.27;57.06
31092;BME280;17747;51.070;10.930;2022-08-04T00:13:51;100720.19;;;18.13;57.28
31092;BME280;17747;51.070;10.930;2022-08-04T00:14:57;100715.97;;;18.09;57.24
31092;BME280;17747;51.070;10.930;2022-08-04T00:16:03;100716.84;;;18.09;57.43
31092;BME280;17747;51.070;10.930;2022-08-04T00:17:05;100712.84;;;18.01;57.72
31092;BME280;17747;51.070;10.930;2022-08-04T00:18:08;100702.47;;;17.79;58.36
31092;BME280;17747;51.070;10.930;2022-08-04T00:19:11;100717.28;;;17.69;58.63
31092;BME280;17747;51.070;10.930;2022-08-04T00:20:18;100709.94;;;17.72;58.20
31092;BME280;17747;51.070;10.930;2022-08-04T00:21:21;100712.13;;;17.81;58.15
31092;BME280;17747;51.070;10.930;2022-08-04T00:22:27;100712.94;;;17.99;57.96
31092;BME280;17747;51.070;10.930;2022-08-04T00:23:29;100714.06;;;18.11;57.61
31092;BME280;17747;51.070;10.930;2022-08-04T00:24:34;100720.09;;;18.14;57.25
31092;BME280;17747;51.070;10.930;2022-08-04T00:25:38;100708.31;;;18.34;56.62
31092;BME280;17747;51.070;10.930;2022-08-04T00:26:42;100705.63;;;18.50;56.43
31092;BME280;17747;51.070;10.930;2022-08-04T00:27:44;100699.94;;;18.56;56.07
31092;BME280;17747;51.070;10.930;2022-08-04T00:28:46;100705.28;;;18.56;56.30
31092;BME280;17747;51.070;10.930;2022-08-04T00:29:48;100708.19;;;18.51;56.35
31092;BME280;17747;51.070;10.930;2022-08-04T00:30:50;100694.44;;;18.28;57.04
31092;BME280;17747;51.070;10.930;2022-08-04T00:31:52;100703.28;;;17.97;57.94
31092;BME280;17747;51.070;10.930;2022-08-04T00:32:55;100710.34;;;17.98;57.93
31092;BME280;17747;51.070;10.930;2022-08-04T00:33:56;100707.34;;;18.19;57.64
31092;BME280;17747;51.070;10.930;2022-08-04T00:34:59;100701.91;;;18.21;57.16
31092;BME280;17747;51.070;10.930;2022-08-04T00:36:00;100704.28;;;17.78;58.49
31092;BME280;17747;51.070;10.930;2022-08-04T00:37:03;100705.91;;;17.81;58.51
31092;BME280;17747;51.070;10.930;2022-08-04T00:38:04;100712.34;;;18.10;57.68
31092;BME280;17747;51.070;10.930;2022-08-04T00:39:08;100712.44;;;18.08;57.62
31092;BME280;17747;51.070;10.930;2022-08-04T00:40:21;100707.34;;;18.19;57.43
31092;BME280;17747;51.070;10.930;2022-08-04T00:41:28;100709.19;;;18.35;56.93
31092;BME280;17747;51.070;10.930;2022-08-04T00:42:40;100712.34;;;18.10;57.39
31092;BME280;17747;51.070;10.930;2022-08-04T00:43:51;100713.13;;;17.63;58.77
31092;BME280;17747;51.070;10.930;2022-08-04T00:45:06;100713.25;;;17.93;57.92
31092;BME280;17747;51.070;10.930;2022-08-04T00:46:44;100714.47;;;18.03;57.89
31092;BME280;17747;51.070;10.930;2022-08-04T00:47:57;100701.63;;;17.78;58.67
31092;BME280;17747;51.070;10.930;2022-08-04T00:49:29;100702.97;;;17.70;58.85
31092;BME280;17747;51.070;10.930;2022-08-04T00:50:43;100703.88;;;17.53;59.17
31092;BME280;17747;51.070;10.930;2022-08-04T00:51:48;100706.34;;;17.73;58.65
31092;BME280;17747;51.070;10.930;2022-08-04T00:53:00;100699.63;;;17.82;58.11
31092;BME280;17747;51.070;10.930;2022-08-04T00:54:10;100700.84;;;17.76;58.87
31092;BME280;17747;51.070;10.930;2022-08-04T00:55:25;100699.50;;;18.01;58.17
31092;BME280;17747;51.070;10.930;2022-08-04T00:56:53;100703.41;;;18.27;57.23
31092;BME280;17747;51.070;10.930;2022-08-04T00:58:21;100707.44;;;18.18;57.36
31092;BME280;17747;51.070;10.930;2022-08-04T00:59:33;100701.59;;;18.27;57.00
31092;BME280;17747;51.070;10.930;2022-08-04T01:00:47;100703.47;;;18.25;56.85
31092;BME280;17747;51.070;10.930;2022-08-04T01:01:58;100705.16;;;17.94;57.56
31092;BME280;17747;51.070;10.930;2022-08-04T01:03:08;100699.63;;;17.82;58.32
31092;BME280;17747;51.070;10.930;2022-08-04T01:04:15;100702.25;;;17.99;57.72
31092;BME280;17747;51.070;10.930;2022-08-04T01:05:21;100710.78;;;17.57;58.76
31092;BME280;17747;51.070;10.930;2022-08-04T01:06:35;100696.28;;;17.94;58.01
31092;BME280;17747;51.070;10.930;2022-08-04T01:07:59;100701.44;;;17.81;58.12
31092;BME280;17747;51.070;10.930;2022-08-04T01:09:17;100703.09;;;17.33;59.38
31092;BME280;17747;51.070;10.930;2022-08-04T01:10:35;100697.91;;;17.48;58.86
31092;BME280;17747;51.070;10.930;2022-08-04T01:11:51;100704.66;;;17.55;58.95
31092;BME280;17747;51.070;10.930;2022-08-04T01:13:11;100699.06;;;17.59;58.83
31092;BME280;17747;51.070;10.930;2022-08-04T01:14:28;100698.16;;;17.76;58.34
31092;BME280;17747;51.070;10.930;2022-08-04T01:15:40;100702.16;;;17.52;58.59
31092;BME280;17747;51.070;10.930;2022-08-04T01:16:48;100700.44;;;17.51;58.79
31092;BME280;17747;51.070;10.930;2022-08-04T01:17:58;100701.50;;;17.64;58.61
31092;BME280;17747;51.070;10.930;2022-08-04T01:19:10;100700.16;;;17.88;57.68
31092;BME280;17747;51.070;10.930;2022-08-04T01:20:20;100700.28;;;17.54;58.62
31092;BME280;17747;51.070;10.930;2022-08-04T01:21:41;100698.69;;;17.50;59.23
31092;BME280;17747;51.070;10.930;2022-08-04T01:23:09;100699.13;;;17.91;58.20
31092;BME280;17747;51.070;10.930;2022-08-04T01:24:41;100694.81;;;17.88;57.94
31092;BME280;17747;51.070;10.930;2022-08-04T01:27:26;100692.25;;;18.18;56.87
31092;BME280;17747;51.070;10.930;2022-08-04T01:28:57;100696.16;;;18.29;56.53
31092;BME280;17747;51.070;10.930;2022-08-04T01:30:00;100706.59;;;18.33;56.76
31092;BME280;17747;51.070;10.930;2022-08-04T01:31:05;100694.50;;;18.10;56.98
31092;BME280;17747;51.070;10.930;2022-08-04T01:32:16;100703.06;;;17.68;58.04
31092;BME280;17747;51.070;10.930;2022-08-04T01:33:20;100702.16;;;17.52;58.76
31092;BME280;17747;51.070;10.930;2022-08-04T01:34:22;100702.66;;;17.08;60.26
31092;BME280;17747;51.070;10.930;2022-08-04T01:35:31;100701.00;;;17.05;60.72
31092;BME280;17747;51.070;10.930;2022-08-04T01:36:34;100700.84;;;16.91;60.88
31092;BME280;17747;51.070;10.930;2022-08-04T01:37:47;100713.00;;;16.97;60.94
31092;BME280;17747;51.070;10.930;2022-08-04T01:38:50;100707.03;;;17.09;60.13
31092;BME280;17747;51.070;10.930;2022-08-04T01:40:01;100709.94;;;16.87;60.73
31092;BME280;17747;51.070;10.930;2022-08-04T01:41:06;100701.63;;;16.76;61.32
31092;BME280;17747;51.070;10.930;2022-08-04T01:42:08;100710.09;;;16.84;61.13
31092;BME280;17747;51.070;10.930;2022-08-04T01:43:12;100707.19;;;16.89;60.42
31092;BME280;17747;51.070;10.930;2022-08-04T01:44:16;100710.97;;;16.85;60.82
31092;BME280;17747;51.070;10.930;2022-08-04T01:45:19;100706.16;;;16.91;60.78
31092;BME280;17747;51.070;10.930;2022-08-04T01:46:22;100705.63;;;17.19;60.36
31092;BME280;17747;51.070;10.930;2022-08-04T01:47:28;100708.25;;;17.36;59.77
31092;BME280;17747;51.070;10.930;2022-08-04T01:48:30;100698.16;;;17.26;59.52
31092;BME280;17747;51.070;10.930;2022-08-04T01:49:32;100706.53;;;17.35;59.63
31092;BME280;17747;51.070;10.930;2022-08-04T01:50:35;100707.56;;;17.33;59.37
31092;BME280;17747;51.070;10.930;2022-08-04T01:51:38;100704.81;;;17.34;59.51
31092;BME280;17747;51.070;10.930;2022-08-04T01:52:41;100705.00;;;17.31;59.41
31092;BME280;17747;51.070;10.930;2022-08-04T01:53:43;100699.19;;;17.23;59.84
31092;BME280;17747;51.070;10.930;2022-08-04T01:54:45;100704.59;;;16.87;61.00
31092;BME280;17747;51.070;10.930;2022-08-04T01:55:47;100703.59;;;16.72;61.23
31092;BME280;17747;51.070;10.930;2022-08-04T01:56:49;100694.81;;;16.88;61.10
31092;BME280;17747;51.070;10.930;2022-08-04T01:57:51;100703.19;;;17.15;59.93
31092;BME280;17747;51.070;10.930;2022-08-04T01:58:56;100699.97;;;17.25;59.40
31092;BME280;17747;51.070;10.930;2022-08-04T01:59:59;100704.59;;;16.87;60.53
31092;BME280;17747;51.070;10.930;2022-08-04T02:01:02;100698.81;;;16.96;60.69
31092;BME280;17747;51.070;10.930;2022-08-04T02:02:03;100700.38;;;17.00;60.19
31092;BME280;17747;51.070;10.930;2022-08-04T02:03:05;100699.34;;;17.03;60.11
31092;BME280;17747;51.070;10.930;2022-08-04T02:04:05;100701.56;;;16.95;60.07
31092;BME280;17747;51.070;10.930;2022-08-04T02:05:09;100701.69;;;16.92;60.64
31092;BME280;17747;51.070;10.930;2022-08-04T02:06:17;100702.56;;;16.92;60.73
31092;BME280;17747;51.070;10.930;2022-08-04T02:07:43;100699.66;;;17.14;60.07
31092;BME280;17747;51.070;10.930;2022-08-04T02:08:52;100696.84;;;17.17;59.94
31092;BME280;17747;51.070;10.930;2022-08-04T02:10:03;100697.63;;;17.19;59.82
31092;BME280;17747;51.070;10.930;2022-08-04T02:11:11;100705.78;;;17.16;59.76
31092;BME280;17747;51.070;10.930;2022-08-04T02:12:21;100701.47;;;17.31;59.34
31092;BME280;17747;51.070;10.930;2022-08-04T02:13:31;100701.31;;;17.51;58.55
31092;BME280;17747;51.070;10.930;2022-08-04T02:14:39;100704.59;;;17.39;58.87
31092;BME280;17747;51.070;10.930;2022-08-04T02:15:54;100700.28;;;17.54;58.63
31092;BME280;17747;51.070;10.930;2022-08-04T02:16:58;100703.41;;;17.62;58.19
31092;BME280;17747;51.070;10.930;2022-08-04T02:18:03;100702.66;;;17.43;58.80
31092;BME280;17747;51.070;10.930;2022-08-04T02:19:16;100690.53;;;17.53;58.21
31092;BME280;17747;51.070;10.930;2022-08-04T02:20:23;100701.06;;;17.39;58.94
31092;BME280;17747;51.070;10.930;2022-08-04T02:21:26;100698.31;;;17.40;58.75
31092;BME280;17747;51.070;10.930;2022-08-04T02:22:27;100695.88;;;17.53;58.58
31092;BME280;17747;51.070;10.930;2022-08-04T02:23:34;100700.88;;;17.42;59.14
31092;BME280;17747;51.070;10.930;2022-08-04T02:24:40;100693.53;;;17.29;59.08
31092;BME280;17747;51.070;10.930;2022-08-04T02:25:46;100699.19;;;16.89;60.52
31092;BME280;17747;51.070;10.930;2022-08-04T02:26:49;100701.06;;;17.04;60.26
31092;BME280;17747;51.070;10.930;2022-08-04T02:28:12;100705.75;;;16.82;60.84
31092;BME280;17747;51.070;10.930;2022-08-04T02:29:19;100698.25;;;16.90;60.67
31092;BME280;17747;51.070;10.930;2022-08-04T02:30:26;100700.75;;;16.93;60.60
31092;BME280;17747;51.070;10.930;2022-08-04T02:31:31;100701.53;;;17.12;59.68
31092;BME280;17747;51.070;10.930;2022-08-04T02:32:35;100694.88;;;17.21;59.49
31092;BME280;17747;51.070;10.930;2022-08-04T02:33:41;100702.78;;;17.22;59.70
31092;BME280;17747;51.070;10.930;2022-08-04T02:34:48;100696.19;;;17.12;59.77
31092;BME280;17747;51.070;10.930;2022-08-04T02:35:53;100694.56;;;16.75;60.86
31092;BME280;17747;51.070;10.930;2022-08-04T02:36:58;100691.09;;;16.73;60.90
31092;BME280;17747;51.070;10.930;2022-08-04T02:38:05;100696.13;;;16.79;60.61
31092;BME280;17747;51.070;10.930;2022-08-04T02:39:10;100689.75;;;16.82;60.78
31092;BME280;17747;51.070;10.930;2022-08-04T02:40:18;100688.44;;;16.54;61.54
31092;BME280;17747;51.070;10.930;2022-08-04T02:41:21;100684.50;;;16.44;61.63
31092;BME280;17747;51.070;10.930;2022-08-04T02:42:23;100685.78;;;16.54;61.60
31092;BME280;17747;51.070;10.930;2022-08-04T02:43:24;100691.47;;;16.65;61.44
31092;BME280;17747;51.070;10.930;2022-08-04T02:44:27;100687.34;;;16.60;61.50
31092;BME280;17747;51.070;10.930;2022-08-04T02:45:30;100679.88;;;16.47;61.81
31092;BME280;17747;51.070;10.930;2022-08-04T02:46:38;100682.91;;;16.59;61.21
31092;BME280;17747;51.070;10.930;2022-08-04T02:47:40;100680.63;;;16.51;61.82
31092;BME280;17747;51.070;10.930;2022-08-04T02:48:42;100684.72;;;16.58;61.47
31092;BME280;17747;51.070;10.930;2022-08-04T02:49:46;100686.88;;;16.50;61.44
31092;BME280;17747;51.070;10.930;2022-08-04T02:50:47;100680.63;;;16.51;61.47
31092;BME280;17747;51.070;10.930;2022-08-04T02:51:51;100678.59;;;16.56;61.33
31092;BME280;17747;51.070;10.930;2022-08-04T02:52:52;100679.38;;;16.58;61.38
31092;BME280;17747;51.070;10.930;2022-08-04T02:53:56;100674.69;;;16.63;61.18
31092;BME280;17747;51.070;10.930;2022-08-04T02:54:58;100675.72;;;16.61;61.04
31092;BME280;17747;51.070;10.930;2022-08-04T02:56:02;100683.81;;;16.76;61.10
31092;BME280;17747;51.070;10.930;2022-08-04T02:57:08;100679.25;;;16.78;60.88
31092;BME280;17747;51.070;10.930;2022-08-04T02:58:11;100680.34;;;16.92;60.43
31092;BME280;17747;51.070;10.930;2022-08-04T02:59:13;100676.91;;;16.90;60.28
31092;BME280;17747;51.070;10.930;2022-08-04T03:00:15;100672.72;;;16.67;60.81
31092;BME280;17747;51.070;10.930;2022-08-04T03:01:18;100677.53;;;16.77;60.51
31092;BME280;17747;51.070;10.930;2022-08-04T03:02:28;100664.97;;;16.80;60.42
31092;BME280;17747;51.070;10.930;2022-08-04T03:03:33;100682.00;;;16.77;60.57
31092;BME280;17747;51.070;10.930;2022-08-04T03:04:46;100672.25;;;16.59;61.07
31092;BME280;17747;51.070;10.930;2022-08-04T03:06:12;100672.31;;;16.57;61.37
31092;BME280;17747;51.070;10.930;2022-08-04T03:07:44;100680.34;;;16.38;61.97
31092;BME280;17747;51.070;10.930;2022-08-04T03:09:15;100680.78;;;16.48;61.68
31092;BME280;17747;51.070;10.930;2022-08-04T03:10:45;100681.47;;;16.52;61.26
31092;BME280;17747;51.070;10.930;2022-08-04T03:15:43;100684.44;;;16.64;61.21
31092;BME280;17747;51.070;10.930;2022-08-04T03:17:19;100690.53;;;16.66;61.01
31092;BME280;17747;51.070;10.930;2022-08-04T03:18:55;100691.97;;;16.55;61.18
31092;BME280;17747;51.070;10.930;2022-08-04T03:20:37;100686.66;;;16.55;61.34
31092;BME280;17747;51.070;10.930;2022-08-04T03:21:59;100683.81;;;16.22;61.92
31092;BME280;17747;51.070;10.930;2022-08-04T03:23:48;100685.97;;;16.32;62.11
31092;BME280;17747;51.070;10.930;2022-08-04T03:25:13;100690.50;;;16.49;61.57
31092;BME280;17747;51.070;10.930;2022-08-04T03:26:42;100681.75;;;16.64;60.90
31092;BME280;17747;51.070;10.930;2022-08-04T03:28:27;100685.28;;;16.65;61.01
31092;BME280;17747;51.070;10.930;2022-08-04T03:31:41;100687.94;;;16.29;62.13
31092;BME280;17747;51.070;10.930;2022-08-04T03:34:32;100682.53;;;16.30;62.40
31092;BME280;17747;51.070;10.930;2022-08-04T03:36:08;100682.44;;;16.32;62.11
31092;BME280;17747;51.070;10.930;2022-08-04T03:37:38;100685.13;;;16.32;61.99
31092;BME280;17747;51.070;10.930;2022-08-04T03:40:34;100688.56;;;16.34;61.79
31092;BME280;17747;51.070;10.930;2022-08-04T03:41:57;100691.47;;;16.29;62.43
31092;BME280;17747;51.070;10.930;2022-08-04T03:46:40;100682.06;;;16.93;60.01
31092;BME280;17747;51.070;10.930;2022-08-04T03:51:28;100688.09;;;16.26;61.80
31092;BME280;17747;51.070;10.930;2022-08-04T03:53:32;100690.28;;;16.35;61.99
31092;BME280;17747;51.070;10.930;2022-08-04T03:56:36;100685.69;;;16.74;61.24
31092;BME280;17747;51.070;10.930;2022-08-04T03:58:16;100685.16;;;16.49;61.34
31092;BME280;17747;51.070;10.930;2022-08-04T03:59:42;100686.56;;;16.75;61.06
31092;BME280;17747;51.070;10.930;2022-08-04T04:00:59;100680.69;;;16.86;60.49
31092;BME280;17747;51.070;10.930;2022-08-04T04:02:29;100686.41;;;16.61;61.07
31092;BME280;17747;51.070;10.930;2022-08-04T04:03:57;100680.78;;;16.48;61.52
31092;BME280;17747;51.070;10.930;2022-08-04T04:05:36;100678.22;;;16.28;62.61
31092;BME280;17747;51.070;10.930;2022-08-04T04:07:06;100678.75;;;16.34;62.24
31092;BME280;17747;51.070;10.930;2022-08-04T04:10:24;100681.59;;;16.31;62.56
31092;BME280;17747;51.070;10.930;2022-08-04T04:12:10;100677.16;;;16.49;62.25
31092;BME280;17747;51.070;10.930;2022-08-04T04:13:25;100685.66;;;16.57;61.48
31092;BME280;17747;51.070;10.930;2022-08-04T04:14:42;100673.56;;;16.50;61.92
31092;BME280;17747;51.070;10.930;2022-08-04T04:15:55;100679.59;;;16.54;61.90
31092;BME280;17747;51.070;10.930;2022-08-04T04:17:08;100685.06;;;16.87;60.87
31092;BME280;17747;51.070;10.930;2022-08-04T04:18:27;100681.13;;;16.76;61.33
31092;BME280;17747;51.070;10.930;2022-08-04T04:19:52;100687.94;;;16.65;61.25
31092;BME280;17747;51.070;10.930;2022-08-04T04:21:26;100686.06;;;16.31;62.25
31092;BME280;17747;51.070;10.930;2022-08-04T04:22:48;100688.13;;;16.24;62.83
31092;BME280;17747;51.070;10.930;2022-08-04T04:24:09;100688.59;;;16.15;62.99
31092;BME280;17747;51.070;10.930;2022-08-04T04:25:27;100687.00;;;16.30;62.71
31092;BME280;17747;51.070;10.930;2022-08-04T04:26:43;100682.16;;;16.38;62.33
31092;BME280;17747;51.070;10.930;2022-08-04T04:28:04;100684.88;;;16.55;61.69
31092;BME280;17747;51.070;10.930;2022-08-04T04:29:24;100683.19;;;16.53;61.77
31092;BME280;17747;51.070;10.930;2022-08-04T04:30:34;100690.16;;;16.38;62.49
31092;BME280;17747;51.070;10.930;2022-08-04T04:31:55;100681.91;;;16.42;62.92
31092;BME280;17747;51.070;10.930;2022-08-04T04:33:06;100687.34;;;16.41;63.02
31092;BME280;17747;51.070;10.930;2022-08-04T04:34:25;100690.22;;;16.55;62.21
31092;BME280;17747;51.070;10.930;2022-08-04T04:35:41;100678.31;;;16.62;61.85
31092;BME280;17747;51.070;10.930;2022-08-04T04:37:00;100688.53;;;16.89;61.47
31092;BME280;17747;51.070;10.930;2022-08-04T04:38:29;100692.91;;;16.90;61.36
31092;BME280;17747;51.070;10.930;2022-08-04T04:39:42;100697.31;;;16.91;61.24
31092;BME280;17747;51.070;10.930;2022-08-04T04:40:54;100690.56;;;17.01;60.79
31092;BME280;17747;51.070;10.930;2022-08-04T04:42:16;100689.38;;;16.89;61.31
31092;BME280;17747;51.070;10.930;2022-08-04T04:43:41;100693.22;;;17.18;60.08
31092;BME280;17747;51.070;10.930;2022-08-04T04:44:58;100693.22;;;17.01;60.27
31092;BME280;17747;51.070;10.930;2022-08-04T04:46:06;100695.03;;;17.00;60.93
31092;BME280;17747;51.070;10.930;2022-08-04T04:47:15;100695.13;;;16.99;60.71
31092;BME280;17747;51.070;10.930;2022-08-04T04:48:28;100695.41;;;16.93;61.07
31092;BME280;17747;51.070;10.930;2022-08-04T04:49:36;100699.22;;;17.06;60.72
31092;BME280;17747;51.070;10.930;2022-08-04T04:50:52;100694.50;;;16.94;61.33
31092;BME280;17747;51.070;10.930;2022-08-04T04:52:02;100696.22;;;16.95;60.95
31092;BME280;17747;51.070;10.930;2022-08-04T04:53:10;100704.84;;;16.83;60.95
31092;BME280;17747;51.070;10.930;2022-08-04T04:54:25;100705.44;;;16.70;61.72
31092;BME280;17747;51.070;10.930;2022-08-04T04:55:32;100701.47;;;17.14;60.33
31092;BME280;17747;51.070;10.930;2022-08-04T04:56:39;100699.59;;;16.98;60.79
31092;BME280;17747;51.070;10.930;2022-08-04T04:57:42;100702.03;;;16.86;61.00
31092;BME280;17747;51.070;10.930;2022-08-04T04:58:44;100700.91;;;16.72;61.62
31092;BME280;17747;51.070;10.930;2022-08-04T04:59:49;100699.13;;;16.73;61.91
31092;BME280;17747;51.070;10.930;2022-08-04T05:01:15;100700.84;;;16.91;61.59
31092;BME280;17747;51.070;10.930;2022-08-04T05:02:53;100703.59;;;16.90;61.28
31092;BME280;17747;51.070;10.930;2022-08-04T05:04:24;100703.09;;;16.82;61.65
31092;BME280;17747;51.070;10.930;2022-08-04T05:05:35;100700.44;;;16.82;61.89
31092;BME280;17747;51.070;10.930;2022-08-04T05:06:51;100699.34;;;16.86;61.65
31092;BME280;17747;51.070;10.930;2022-08-04T05:08:12;100699.97;;;16.91;61.68
31092;BME280;17747;51.070;10.930;2022-08-04T05:09:27;100692.91;;;16.90;61.23
31092;BME280;17747;51.070;10.930;2022-08-04T05:10:45;100696.75;;;17.01;61.46
31092;BME280;17747;51.070;10.930;2022-08-04T05:12:22;100704.53;;;17.06;61.19
31092;BME280;17747;51.070;10.930;2022-08-04T05:13:33;100694.47;;;17.28;60.44
31092;BME280;17747;51.070;10.930;2022-08-04T05:14:40;100697.31;;;17.43;59.64
31092;BME280;17747;51.070;10.930;2022-08-04T05:15:45;100699.19;;;17.23;60.60
31092;BME280;17747;51.070;10.930;2022-08-04T05:16:50;100705.63;;;17.19;60.81
31092;BME280;17747;51.070;10.930;2022-08-04T05:17:56;100702.41;;;17.13;61.50
31092;BME280;17747;51.070;10.930;2022-08-04T05:19:08;100699.97;;;17.25;60.69
31092;BME280;17747;51.070;10.930;2022-08-04T05:20:21;100695.78;;;17.37;60.41
31092;BME280;17747;51.070;10.930;2022-08-04T05:21:33;100699.31;;;17.38;60.94
31092;BME280;17747;51.070;10.930;2022-08-04T05:22:40;100695.56;;;17.42;60.69
31092;BME280;17747;51.070;10.930;2022-08-04T05:23:47;100699.25;;;17.72;59.52
31092;BME280;17747;51.070;10.930;2022-08-04T05:24:56;100701.78;;;17.91;59.56
31092;BME280;17747;51.070;10.930;2022-08-04T05:26:01;100695.50;;;17.76;59.35
31092;BME280;17747;51.070;10.930;2022-08-04T05:27:11;100698.94;;;17.78;59.54
31092;BME280;17747;51.070;10.930;2022-08-04T05:28:16;100700.75;;;17.93;59.29
31092;BME280;17747;51.070;10.930;2022-08-04T05:29:25;100697.59;;;17.87;59.50
31092;BME280;17747;51.070;10.930;2022-08-04T05:30:27;100700.84;;;17.92;59.22
31092;BME280;17747;51.070;10.930;2022-08-04T05:31:33;100693.47;;;17.97;59.40
31092;BME280;17747;51.070;10.930;2022-08-04T05:32:41;100698.13;;;18.09;58.57
31092;BME280;17747;51.070;10.930;2022-08-04T05:33:48;100696.41;;;18.08;58.97
31092;BME280;17747;51.070;10.930;2022-08-04T05:34:55;100692.09;;;18.21;58.50
31092;BME280;17747;51.070;10.930;2022-08-04T05:36:02;100694.59;;;18.09;58.70
31092;BME280;17747;51.070;10.930;2022-08-04T05:37:08;100690.34;;;18.20;58.45
31092;BME280;17747;51.070;10.930;2022-08-04T05:38:13;100694.34;;;18.29;58.19
31092;BME280;17747;51.070;10.930;2022-08-04T05:39:18;100693.47;;;18.29;58.25
31092;BME280;17747;51.070;10.930;2022-08-04T05:40:23;100694.41;;;18.12;58.75
31092;BME280;17747;51.070;10.930;2022-08-04T05:41:26;100692.41;;;18.00;59.22
31092;BME280;17747;51.070;10.930;2022-08-04T05:42:29;100696.38;;;17.92;59.43
31092;BME280;17747;51.070;10.930;2022-08-04T05:43:30;100691.19;;;17.89;59.84
31092;BME280;17747;51.070;10.930;2022-08-04T05:44:32;100693.09;;;18.03;59.40
31092;BME280;17747;51.070;10.930;2022-08-04T05:45:34;100686.06;;;18.18;58.88
31092;BME280;17747;51.070;10.930;2022-08-04T05:46:36;100686.56;;;18.25;58.58
31092;BME280;17747;51.070;10.930;2022-08-04T05:47:37;100684.16;;;18.20;59.04
31092;BME280;17747;51.070;10.930;2022-08-04T05:48:39;100687.41;;;18.25;59.20
31092;BME280;17747;51.070;10.930;2022-08-04T05:49:42;100698.41;;;18.36;59.96
31092;BME280;17747;51.070;10.930;2022-08-04T05:50:45;100687.75;;;18.50;59.15
31092;BME280;17747;51.070;10.930;2022-08-04T05:51:47;100690.28;;;18.54;59.25
31092;BME280;17747;51.070;10.930;2022-08-04T05:52:50;100692.25;;;18.66;59.25
31092;BME280;17747;51.070;10.930;2022-08-04T05:53:52;100701.81;;;18.70;59.15
31092;BME280;17747;51.070;10.930;2022-08-04T05:54:55;100692.16;;;18.97;58.72
31092;BME280;17747;51.070;10.930;2022-08-04T05:56:00;100693.69;;;19.01;58.37
31092;BME280;17747;51.070;10.930;2022-08-04T05:57:04;100688.69;;;18.95;58.34
31092;BME280;17747;51.070;10.930;2022-08-04T05:58:06;100698.84;;;19.20;57.66
31092;BME280;17747;51.070;10.930;2022-08-04T05:59:10;100695.84;;;19.11;58.00
31092;BME280;17747;51.070;10.930;2022-08-04T06:00:12;100699.25;;;19.43;57.34
31092;BME280;17747;51.070;10.930;2022-08-04T06:01:14;100702.97;;;19.40;57.44
31092;BME280;17747;51.070;10.930;2022-08-04T06:02:17;100693.91;;;19.43;57.67
31092;BME280;17747;51.070;10.930;2022-08-04T06:03:20;100692.09;;;19.57;57.34
31092;BME280;17747;51.070;10.930;2022-08-04T06:04:25;100694.25;;;19.65;57.36
31092;BME280;17747;51.070;10.930;2022-08-04T06:05:27;100691.22;;;19.57;57.46
31092;BME280;17747;51.070;10.930;2022-08-04T06:06:29;100695.88;;;19.53;57.44
31092;BME280;17747;51.070;10.930;2022-08-04T06:07:30;100686.81;;;19.70;57.03
31092;BME280;17747;51.070;10.930;2022-08-04T06:08:31;100692.19;;;19.84;56.27
31092;BME280;17747;51.070;10.930;2022-08-04T06:09:33;100687.41;;;19.89;56.43
31092;BME280;17747;51.070;10.930;2022-08-04T06:10:36;100689.03;;;19.78;56.40
31092;BME280;17747;51.070;10.930;2022-08-04T06:11:40;100692.28;;;19.69;56.87
31092;BME280;17747;51.070;10.930;2022-08-04T06:12:45;100690.75;;;19.93;56.30
31092;BME280;17747;51.070;10.930;2022-08-04T06:13:52;100689.41;;;19.86;56.41
31092;BME280;17747;51.070;10.930;2022-08-04T06:14:56;100691.31;;;19.84;56.43
31092;BME280;17747;51.070;10.930;2022-08-04T06:15:59;100700.91;;;20.02;55.99
31092;BME280;17747;51.070;10.930;2022-08-04T06:17:04;100685.78;;;20.01;56.04
31092;BME280;17747;51.070;10.930;2022-08-04T06:18:08;100694.63;;;20.16;55.74
31092;BME280;17747;51.070;10.930;2022-08-04T06:19:12;100690.22;;;20.56;54.50
31092;BME280;17747;51.070;10.930;2022-08-04T06:20:16;100695.31;;;20.61;54.67
31092;BME280;17747;51.070;10.930;2022-08-04T06:21:19;100701.66;;;20.72;54.13
31092;BME280;17747;51.070;10.930;2022-08-04T06:22:22;100689.72;;;20.64;54.25
31092;BME280;17747;51.070;10.930;2022-08-04T06:23:28;100692.88;;;20.70;54.40
31092;BME280;17747;51.070;10.930;2022-08-04T06:24:31;100692.25;;;20.79;54.58
31092;BME280;17747;51.070;10.930;2022-08-04T06:25:38;100695.78;;;20.80;54.08